Time;durP1;ratioP1;P1;durP2;ratioP2;P2;SDS_P1;SDS_P2;PMS_P1;PMS_P2;Temp;Humidity;BMP_temperature;BMP_pressure;BME280_temperature;BME280_humidity;BME280_pressure;Samples;Min_cycle;Max_cycle;Signal;HPM_P1;HPM_P2
2021/11/04 00:00:52;;;;;;;3.65;1.92;;;10.10;99.90;;;;;;5096804;28;20297;-75
2021/11/04 00:03:19;;;;;;;2.17;1.80;;;10.10;99.90;;;;;;5096733;28;20579;-74
2021/11/04 00:05:46;;;;;;;2.00;1.83;;;10.10;99.90;;;;;;5096818;28;20290;-75
2021/11/04 00:08:13;;;;;;;2.63;2.10;;;10.20;99.90;;;;;;5096782;28;20233;-75
2021/11/04 00:10:39;;;;;;;2.47;2.22;;;10.20;99.90;;;;;;5096737;28;20292;-75
2021/11/04 00:13:08;;;;;;;2.20;2.00;;;10.20;99.90;;;;;;5096481;28;20232;-74
2021/11/04 00:15:34;;;;;;;2.25;2.05;;;10.20;99.90;;;;;;5096468;28;20229;-75
2021/11/04 00:18:02;;;;;;;2.80;2.00;;;10.20;99.90;;;;;;5096661;28;20559;-75
2021/11/04 00:20:29;;;;;;;3.47;2.10;;;10.20;99.90;;;;;;5095879;28;20210;-75
2021/11/04 00:22:56;;;;;;;2.63;2.30;;;10.30;99.90;;;;;;5095939;28;20276;-74
2021/11/04 00:25:23;;;;;;;3.35;1.90;;;10.30;99.90;;;;;;5096271;28;20198;-75
2021/11/04 00:27:51;;;;;;;2.00;1.83;;;10.20;99.90;;;;;;5096401;28;20293;-75
2021/11/04 00:30:19;;;;;;;2.20;1.77;;;10.20;99.90;;;;;;5096332;28;20202;-75
2021/11/04 00:32:48;;;;;;;1.80;1.30;;;10.20;99.90;;;;;;5096141;28;20232;-74
2021/11/04 00:35:15;;;;;;;1.92;1.77;;;10.10;99.90;;;;;;5096071;28;20283;-74
2021/11/04 00:37:42;;;;;;;1.58;1.48;;;10.10;99.90;;;;;;5096240;28;20212;-74
2021/11/04 00:40:11;;;;;;;1.95;1.60;;;10.10;99.90;;;;;;5096082;28;20321;-75
2021/11/04 00:42:38;;;;;;;1.45;1.35;;;10.10;99.90;;;;;;5095715;28;20712;-74
2021/11/04 00:45:06;;;;;;;1.60;1.50;;;10.00;99.90;;;;;;5096116;28;20205;-75
2021/11/04 00:47:34;;;;;;;2.00;1.73;;;10.10;99.90;;;;;;5096040;28;20206;-74
2021/11/04 00:50:01;;;;;;;1.65;1.55;;;10.10;99.90;;;;;;5095980;28;20292;-74
2021/11/04 00:52:28;;;;;;;1.70;1.30;;;10.00;99.90;;;;;;5095535;28;20662;-74
2021/11/04 00:54:55;;;;;;;1.30;1.20;;;10.00;99.90;;;;;;5095875;28;20222;-74
2021/11/04 00:57:23;;;;;;;1.42;1.30;;;10.10;99.90;;;;;;5095826;28;20288;-74
2021/11/04 00:59:49;;;;;;;1.98;1.00;;;10.00;99.90;;;;;;5095818;28;20545;-75
2021/11/04 01:02:16;;;;;;;1.40;1.30;;;10.00;99.90;;;;;;5095629;28;20222;-74
2021/11/04 01:04:44;;;;;;;2.13;0.82;;;10.00;99.90;;;;;;5095705;28;20292;-75
2021/11/04 01:07:11;;;;;;;1.10;1.00;;;10.00;99.90;;;;;;5095631;28;20296;-75
2021/11/04 01:09:38;;;;;;;1.17;1.10;;;10.00;99.90;;;;;;5095509;28;20293;-75
2021/11/04 01:12:06;;;;;;;1.13;1.05;;;10.10;99.90;;;;;;5095410;28;20312;-74
2021/11/04 01:14:33;;;;;;;1.00;0.90;;;10.00;99.90;;;;;;5095450;28;20637;-75
2021/11/04 01:17:00;;;;;;;1.27;1.17;;;10.00;99.90;;;;;;5095461;28;20210;-74
2021/11/04 01:19:26;;;;;;;1.25;1.15;;;10.00;99.90;;;;;;5095387;28;20209;-75
2021/11/04 01:21:55;;;;;;;1.50;1.35;;;9.90;99.90;;;;;;5095030;28;20317;-74
2021/11/04 01:24:21;;;;;;;1.50;0.90;;;9.90;99.90;;;;;;5095304;28;20214;-75
2021/11/04 01:26:48;;;;;;;1.38;1.27;;;9.90;99.90;;;;;;5095081;28;20691;-75
2021/11/04 01:29:16;;;;;;;1.15;1.05;;;9.90;99.90;;;;;;5095222;28;20202;-75
2021/11/04 01:31:42;;;;;;;1.63;1.52;;;9.90;99.90;;;;;;5094753;28;20254;-74
2021/11/04 01:34:09;;;;;;;1.77;1.15;;;9.90;99.90;;;;;;5095102;28;20288;-75
2021/11/04 01:36:36;;;;;;;1.98;1.70;;;9.90;99.90;;;;;;5094923;28;20225;-75
2021/11/04 01:39:05;;;;;;;1.60;1.50;;;9.90;99.90;;;;;;5094639;28;20202;-75
2021/11/04 01:41:32;;;;;;;1.20;1.10;;;9.90;99.90;;;;;;5094518;28;20653;-74
2021/11/04 01:43:59;;;;;;;1.40;1.30;;;9.90;99.90;;;;;;5095020;28;20202;-75
2021/11/04 01:46:27;;;;;;;1.30;1.20;;;10.00;99.90;;;;;;5094755;28;20666;-75
2021/11/04 01:48:54;;;;;;;2.00;1.70;;;10.00;99.90;;;;;;5094827;28;20198;-74
2021/11/04 01:51:21;;;;;;;1.42;1.33;;;10.00;99.90;;;;;;5094536;28;20395;-74
2021/11/04 01:53:48;;;;;;;1.58;1.20;;;9.90;99.90;;;;;;5094857;28;20202;-75
2021/11/04 01:56:16;;;;;;;1.50;1.40;;;10.00;99.90;;;;;;5094879;28;20228;-74
2021/11/04 01:58:43;;;;;;;1.30;1.20;;;10.00;99.90;;;;;;5094534;28;20668;-75
2021/11/04 02:01:11;;;;;;;1.40;1.30;;;9.80;99.90;;;;;;5094296;28;20663;-74
2021/11/04 02:03:44;;;;;;;5.30;1.40;;;9.80;99.90;;;;;;5094638;28;20202;-75
2021/11/04 02:06:20;;;;;;;2.95;1.70;;;9.80;99.90;;;;;;5094586;28;20208;-75
2021/11/04 02:08:54;;;;;;;1.55;1.10;;;9.80;99.90;;;;;;5094537;28;20214;-75
2021/11/04 02:11:28;;;;;;;1.25;1.02;;;9.70;99.90;;;;;;5094132;28;20206;-74
2021/11/04 02:14:00;;;;;;;1.70;1.30;;;9.50;99.90;;;;;;5094730;28;20190;-74
2021/11/04 02:16:30;;;;;;;1.50;1.40;;;9.40;99.90;;;;;;5094270;28;20618;-75
2021/11/04 02:19:00;;;;;;;2.00;1.40;;;9.30;99.90;;;;;;5094380;28;20289;-74
2021/11/04 02:21:35;;;;;;;1.70;1.60;;;9.10;99.90;;;;;;5093910;28;20317;-74
2021/11/04 02:24:14;;;;;;;1.85;1.33;;;9.00;99.90;;;;;;5094335;28;20189;-75
2021/11/04 02:26:43;;;;;;;2.17;1.98;;;9.00;99.90;;;;;;5094153;28;20556;-75
2021/11/04 02:29:11;;;;;;;2.10;1.75;;;9.10;99.90;;;;;;5094149;28;20293;-74
2021/11/04 02:31:38;;;;;;;1.52;1.42;;;9.10;99.90;;;;;;5093815;28;20308;-75
2021/11/04 02:34:05;;;;;;;2.40;1.35;;;9.10;99.90;;;;;;5094274;28;20198;-74
2021/11/04 02:36:33;;;;;;;1.65;1.50;;;9.10;99.90;;;;;;5093994;28;20579;-75
2021/11/04 02:39:01;;;;;;;2.65;1.65;;;9.20;99.90;;;;;;5093895;28;20202;-75
2021/11/04 02:41:31;;;;;;;1.60;1.50;;;9.20;99.90;;;;;;5093835;28;20703;-74
2021/11/04 02:44:00;;;;;;;2.85;1.65;;;9.20;99.90;;;;;;5093674;28;20209;-75
2021/11/04 02:46:28;;;;;;;2.10;1.90;;;9.20;99.90;;;;;;5093915;28;20285;-75
2021/11/04 02:48:55;;;;;;;1.58;1.48;;;9.30;99.90;;;;;;5094294;28;20212;-75
2021/11/04 02:51:22;;;;;;;1.98;1.67;;;9.30;99.90;;;;;;5093455;28;20656;-74
2021/11/04 02:53:49;;;;;;;2.65;1.80;;;9.20;99.90;;;;;;5093471;28;20209;-74
2021/11/04 02:56:16;;;;;;;1.73;1.60;;;9.10;99.90;;;;;;5093507;28;20229;-74
2021/11/04 02:58:43;;;;;;;2.05;1.70;;;9.10;99.90;;;;;;5093742;28;20305;-75
2021/11/04 03:01:11;;;;;;;1.63;1.40;;;9.10;99.90;;;;;;5093573;28;20572;-74
2021/11/04 03:03:38;;;;;;;1.88;1.60;;;9.10;99.90;;;;;;5093770;28;20198;-74
2021/11/04 03:06:05;;;;;;;1.42;1.33;;;9.00;99.90;;;;;;5093686;28;20571;-75
2021/11/04 03:08:32;;;;;;;1.50;1.40;;;9.00;99.90;;;;;;5093641;28;20537;-74
2021/11/04 03:10:59;;;;;;;4.22;1.13;;;9.00;99.90;;;;;;5093615;28;20293;-73
2021/11/04 03:13:26;;;;;;;1.05;0.70;;;8.90;99.90;;;;;;5093611;28;20318;-75
2021/11/04 03:15:57;;;;;;;1.23;1.15;;;8.70;99.90;;;;;;5093533;28;20240;-74
2021/11/04 03:18:26;;;;;;;1.50;0.90;;;8.70;99.90;;;;;;5093514;28;20665;-74
2021/11/04 03:20:54;;;;;;;1.45;1.10;;;8.70;99.90;;;;;;5093456;28;20212;-74
2021/11/04 03:23:21;;;;;;;1.20;0.85;;;8.70;99.90;;;;;;5093330;28;20230;-74
2021/11/04 03:25:49;;;;;;;1.27;0.93;;;8.80;99.90;;;;;;5093838;28;20210;-74
2021/11/04 03:28:16;;;;;;;0.63;0.63;;;8.80;99.90;;;;;;5093390;28;20295;-74
2021/11/04 03:30:45;;;;;;;0.73;0.70;;;8.80;99.90;;;;;;5093350;28;20209;-74
2021/11/04 03:33:13;;;;;;;0.88;0.70;;;8.80;99.90;;;;;;5093304;28;20221;-74
2021/11/04 03:35:42;;;;;;;0.57;0.40;;;8.70;99.90;;;;;;5093334;28;20580;-74
2021/11/04 03:38:13;;;;;;;0.70;0.63;;;8.70;99.90;;;;;;5093183;28;20209;-74
2021/11/04 03:40:41;;;;;;;0.73;0.50;;;8.70;99.90;;;;;;5093137;28;20272;-74
2021/11/04 03:43:09;;;;;;;0.95;0.43;;;8.70;99.90;;;;;;5093170;28;20308;-74
2021/11/04 03:45:37;;;;;;;0.80;0.57;;;8.50;99.90;;;;;;5093252;28;20293;-74
2021/11/04 03:48:05;;;;;;;0.43;0.43;;;8.50;99.90;;;;;;5093146;28;20205;-74
2021/11/04 03:50:34;;;;;;;0.57;0.55;;;8.50;99.90;;;;;;5093205;28;20619;-74
2021/11/04 03:53:02;;;;;;;0.50;0.50;;;8.50;99.90;;;;;;5093168;28;20249;-74
2021/11/04 03:55:31;;;;;;;0.45;0.45;;;8.70;99.90;;;;;;5094071;28;20686;-74
2021/11/04 03:57:59;;;;;;;0.60;0.60;;;8.70;99.90;;;;;;5097009;28;20209;-75
2021/11/04 04:00:26;;;;;;;0.60;0.60;;;8.50;99.90;;;;;;5096907;28;20228;-74
2021/11/04 04:02:53;;;;;;;0.50;0.50;;;8.40;99.90;;;;;;5096762;28;20224;-74
2021/11/04 04:05:28;;;;;;;0.57;0.50;;;8.40;99.90;;;;;;5096906;28;20237;-74
2021/11/04 04:07:55;;;;;;;0.90;0.85;;;8.40;99.90;;;;;;5096718;28;20662;-74
2021/11/04 04:10:24;;;;;;;0.93;0.60;;;8.40;99.90;;;;;;5096993;28;20206;-74
2021/11/04 04:12:51;;;;;;;0.70;0.70;;;8.60;99.90;;;;;;5096332;28;20309;-74
2021/11/04 04:15:18;;;;;;;0.50;0.50;;;8.60;99.90;;;;;;5096752;28;20561;-74
2021/11/04 04:17:45;;;;;;;0.55;0.50;;;8.60;99.90;;;;;;5096541;28;20226;-75
2021/11/04 04:20:12;;;;;;;0.80;0.80;;;8.60;99.90;;;;;;5096322;28;20201;-75
2021/11/04 04:22:39;;;;;;;1.15;0.88;;;8.70;99.90;;;;;;5096327;28;20248;-75
2021/11/04 04:25:07;;;;;;;0.63;0.63;;;8.80;99.90;;;;;;5096275;28;20205;-74
2021/11/04 04:27:35;;;;;;;1.02;0.60;;;8.80;99.90;;;;;;5096149;28;20295;-74
2021/11/04 04:30:03;;;;;;;1.00;1.00;;;8.70;99.90;;;;;;5096405;28;20293;-74
2021/11/04 04:32:30;;;;;;;2.42;1.58;;;8.70;99.90;;;;;;5096225;28;20308;-74
2021/11/04 04:34:56;;;;;;;1.10;1.00;;;8.60;99.90;;;;;;5096318;28;20631;-75
2021/11/04 04:37:23;;;;;;;0.75;0.75;;;8.70;99.90;;;;;;5096238;28;20580;-74
2021/11/04 04:39:50;;;;;;;2.42;1.08;;;8.60;99.90;;;;;;5096058;28;20214;-75
2021/11/04 04:42:17;;;;;;;1.80;0.90;;;8.70;99.90;;;;;;5095807;28;20610;-74
2021/11/04 04:44:45;;;;;;;0.80;0.63;;;8.70;99.90;;;;;;5096228;28;20238;-74
2021/11/04 04:47:12;;;;;;;1.05;0.95;;;8.80;99.90;;;;;;5096040;28;20224;-74
2021/11/04 04:49:38;;;;;;;0.98;0.98;;;8.80;99.90;;;;;;5096014;28;20204;-74
2021/11/04 04:52:06;;;;;;;1.30;1.00;;;8.80;99.90;;;;;;5095637;28;20774;-74
2021/11/04 04:54:32;;;;;;;0.80;0.80;;;8.80;99.90;;;;;;5096224;28;20205;-74
2021/11/04 04:56:59;;;;;;;0.95;0.80;;;8.70;99.90;;;;;;5095987;28;20313;-74
2021/11/04 04:59:26;;;;;;;1.13;1.02;;;8.70;99.90;;;;;;5096057;28;20293;-74
2021/11/04 05:01:54;;;;;;;0.95;0.95;;;8.70;99.90;;;;;;5095469;28;20225;-74
2021/11/04 05:04:21;;;;;;;1.85;1.25;;;8.60;99.90;;;;;;5095512;28;20676;-74
2021/11/04 05:06:48;;;;;;;1.17;1.08;;;8.60;99.90;;;;;;5095206;28;20226;-74
2021/11/04 05:09:15;;;;;;;1.30;1.05;;;8.60;99.90;;;;;;5095598;28;20664;-74
2021/11/04 05:11:42;;;;;;;1.42;1.00;;;8.60;99.90;;;;;;5095422;28;20226;-74
2021/11/04 05:14:08;;;;;;;1.88;1.00;;;8.60;99.90;;;;;;5095565;28;20205;-74
2021/11/04 05:16:35;;;;;;;1.08;1.08;;;8.60;99.90;;;;;;5095752;28;20308;-74
2021/11/04 05:19:04;;;;;;;1.15;0.80;;;8.60;99.90;;;;;;5095477;28;20612;-74
2021/11/04 05:21:31;;;;;;;1.10;1.00;;;8.70;99.90;;;;;;5095100;28;20229;-74
2021/11/04 05:23:58;;;;;;;0.77;0.75;;;8.70;99.90;;;;;;5095328;28;20233;-74
2021/11/04 05:26:25;;;;;;;1.33;0.90;;;8.70;99.90;;;;;;5095330;28;20201;-74
2021/11/04 05:28:52;;;;;;;0.80;0.77;;;8.70;99.90;;;;;;5095109;28;20216;-74
2021/11/04 05:31:18;;;;;;;0.95;0.77;;;8.70;99.90;;;;;;5095187;28;20240;-74
2021/11/04 05:33:47;;;;;;;0.70;0.70;;;8.80;99.90;;;;;;5095222;28;20290;-74
2021/11/04 05:36:15;;;;;;;1.13;0.98;;;8.80;99.90;;;;;;5094904;28;20679;-74
2021/11/04 05:38:42;;;;;;;2.25;0.98;;;8.80;99.90;;;;;;5094840;28;20293;-74
2021/11/04 05:41:08;;;;;;;0.98;0.90;;;8.70;99.90;;;;;;5094611;28;20210;-74
2021/11/04 05:43:35;;;;;;;0.75;0.75;;;8.70;99.90;;;;;;5094751;28;20209;-75
2021/11/04 05:46:02;;;;;;;1.13;0.90;;;8.60;99.90;;;;;;5094831;28;20244;-74
2021/11/04 05:48:29;;;;;;;1.10;1.00;;;8.60;99.90;;;;;;5094879;28;20208;-74
2021/11/04 05:50:57;;;;;;;1.65;1.00;;;8.50;99.90;;;;;;5094740;28;20246;-75
2021/11/04 05:53:25;;;;;;;1.10;1.10;;;8.40;99.90;;;;;;5094649;28;20225;-74
2021/11/04 05:55:52;;;;;;;1.30;0.90;;;8.50;99.90;;;;;;5094709;28;20202;-74
2021/11/04 05:58:20;;;;;;;5.00;1.42;;;8.50;99.90;;;;;;5094730;28;20198;-74
2021/11/04 06:00:47;;;;;;;3.70;2.63;;;8.50;99.90;;;;;;5094648;28;20209;-74
2021/11/04 06:03:14;;;;;;;4.80;2.05;;;8.50;99.90;;;;;;5094344;28;20310;-74
2021/11/04 06:05:41;;;;;;;2.88;1.02;;;8.40;99.90;;;;;;5094313;28;20212;-75
2021/11/04 06:08:09;;;;;;;13.40;1.40;;;8.50;99.90;;;;;;5094566;28;20199;-75
2021/11/04 06:10:37;;;;;;;0.82;0.80;;;8.40;99.90;;;;;;5094384;28;20208;-74
2021/11/04 06:13:05;;;;;;;1.05;0.95;;;8.50;99.90;;;;;;5094282;28;20221;-74
2021/11/04 06:15:32;;;;;;;1.77;1.10;;;8.50;99.90;;;;;;5094334;28;20202;-74
2021/11/04 06:17:58;;;;;;;5.18;0.82;;;8.50;99.90;;;;;;5094135;28;20253;-74
2021/11/04 06:20:26;;;;;;;1.05;0.80;;;8.50;99.90;;;;;;5094200;28;20309;-74
2021/11/04 06:22:52;;;;;;;0.90;0.70;;;8.60;99.90;;;;;;5094101;28;20233;-74
2021/11/04 06:25:19;;;;;;;0.80;0.50;;;8.60;99.90;;;;;;5094091;28;20202;-74
2021/11/04 06:27:48;;;;;;;1.02;0.73;;;8.60;99.90;;;;;;5093898;28;20289;-74
2021/11/04 06:30:15;;;;;;;0.60;0.60;;;8.60;99.90;;;;;;5094139;28;20229;-74
2021/11/04 06:32:42;;;;;;;0.75;0.75;;;8.60;99.90;;;;;;5093615;28;20228;-74
2021/11/04 06:35:10;;;;;;;0.75;0.68;;;8.60;99.90;;;;;;5094074;28;20202;-74
2021/11/04 06:37:38;;;;;;;1.17;0.90;;;8.60;99.90;;;;;;5094340;28;20222;-74
2021/11/04 06:40:08;;;;;;;0.75;0.70;;;8.60;99.90;;;;;;5093824;28;20608;-74
2021/11/04 06:42:35;;;;;;;0.95;0.70;;;8.70;99.90;;;;;;5093616;28;20222;-74
2021/11/04 06:45:04;;;;;;;0.65;0.60;;;8.60;99.90;;;;;;5093950;28;20297;-74
2021/11/04 06:47:36;;;;;;;9.18;4.50;;;8.60;99.90;;;;;;5093931;28;20239;-74
2021/11/04 06:50:05;;;;;;;2.67;1.95;;;8.50;99.90;;;;;;5094103;28;20548;-74
2021/11/04 06:52:36;;;;;;;0.90;0.90;;;8.50;99.90;;;;;;5093611;28;20225;-74
2021/11/04 06:55:04;;;;;;;0.65;0.65;;;8.60;99.90;;;;;;5093920;28;20273;-75
2021/11/04 06:57:35;;;;;;;1.20;0.88;;;8.60;99.90;;;;;;5093666;28;20225;-74
2021/11/04 07:00:07;;;;;;;0.73;0.52;;;8.50;99.90;;;;;;5093560;28;20292;-74
2021/11/04 07:02:37;;;;;;;0.93;0.88;;;8.50;99.90;;;;;;5093588;28;20290;-74
2021/11/04 07:05:07;;;;;;;1.05;0.98;;;8.60;99.90;;;;;;5093710;28;20205;-74
2021/11/04 07:07:43;;;;;;;1.00;0.80;;;8.60;99.90;;;;;;5093619;28;20237;-74
2021/11/04 07:10:11;;;;;;;5.63;3.80;;;8.70;99.90;;;;;;5093615;28;20201;-74
2021/11/04 07:12:42;;;;;;;5.40;3.42;;;8.70;99.90;;;;;;5093440;28;20304;-74
2021/11/04 07:15:11;;;;;;;1.10;1.00;;;8.70;99.90;;;;;;5093656;28;20625;-74
2021/11/04 07:17:41;;;;;;;1.25;0.80;;;8.80;99.90;;;;;;5093483;28;20313;-74
2021/11/04 07:20:09;;;;;;;0.80;0.80;;;8.70;99.90;;;;;;5093431;28;20613;-74
2021/11/04 07:22:39;;;;;;;0.77;0.65;;;8.70;99.90;;;;;;5093074;28;20222;-74
2021/11/04 07:25:09;;;;;;;0.90;0.80;;;8.80;99.90;;;;;;5093513;28;20578;-74
2021/11/04 07:27:46;;;;;;;1.52;0.93;;;8.70;99.90;;;;;;5093335;28;20194;-74
2021/11/04 07:30:18;;;;;;;0.88;0.88;;;8.70;99.90;;;;;;5094217;28;20293;-74
2021/11/04 07:32:48;;;;;;;0.93;0.80;;;8.70;99.90;;;;;;5097110;28;20222;-74
2021/11/04 07:35:17;;;;;;;1.90;1.17;;;8.70;99.90;;;;;;5097496;28;20201;-74
2021/11/04 07:37:45;;;;;;;0.80;0.80;;;8.70;99.90;;;;;;5097373;28;20561;-75
2021/11/04 07:40:13;;;;;;;0.95;0.80;;;8.70;99.90;;;;;;5097331;28;20305;-75
2021/11/04 07:42:40;;;;;;;0.98;0.90;;;8.70;99.90;;;;;;5096958;28;20222;-75
2021/11/04 07:45:07;;;;;;;1.10;1.00;;;8.70;99.90;;;;;;5097242;28;20272;-75
2021/11/04 07:47:37;;;;;;;1.50;0.77;;;8.80;99.90;;;;;;5097184;28;20544;-75
2021/11/04 07:50:05;;;;;;;0.80;0.80;;;8.70;99.90;;;;;;5097238;28;20208;-74
2021/11/04 07:52:32;;;;;;;1.13;0.90;;;8.70;99.90;;;;;;5096621;28;20715;-74
2021/11/04 07:55:00;;;;;;;0.93;0.80;;;8.80;99.90;;;;;;5097059;28;20228;-74
2021/11/04 07:57:27;;;;;;;1.02;0.88;;;8.70;99.90;;;;;;5097066;28;20279;-75
2021/11/04 07:59:54;;;;;;;0.80;0.77;;;8.70;99.90;;;;;;5097012;28;20289;-75
2021/11/04 08:02:21;;;;;;;1.45;1.30;;;8.80;99.90;;;;;;5096644;28;20230;-74
2021/11/04 08:04:49;;;;;;;2.03;1.00;;;8.70;99.90;;;;;;5096939;28;20206;-75
2021/11/04 08:07:16;;;;;;;0.88;0.88;;;8.70;99.90;;;;;;5096895;28;20201;-75
2021/11/04 08:09:43;;;;;;;0.80;0.80;;;8.70;99.90;;;;;;5096811;28;20209;-75
2021/11/04 08:12:10;;;;;;;1.67;1.00;;;8.80;99.90;;;;;;5096430;28;20253;-74
2021/11/04 08:14:37;;;;;;;1.25;1.15;;;8.80;99.90;;;;;;5096708;28;20209;-74
2021/11/04 08:17:04;;;;;;;1.50;1.38;;;8.80;99.90;;;;;;5096622;28;20229;-74
2021/11/04 08:19:32;;;;;;;1.60;1.38;;;8.70;99.90;;;;;;5096662;28;20206;-75
2021/11/04 08:22:00;;;;;;;1.20;1.02;;;8.80;99.90;;;;;;5096069;28;20222;-75
2021/11/04 08:24:27;;;;;;;1.63;1.40;;;8.80;99.90;;;;;;5096614;28;20208;-74
2021/11/04 08:26:54;;;;;;;1.17;1.08;;;8.80;99.90;;;;;;5096438;28;20202;-74
2021/11/04 08:29:21;;;;;;;1.77;1.38;;;8.70;99.90;;;;;;5096394;28;20241;-75
2021/11/04 08:31:48;;;;;;;1.38;1.17;;;8.70;99.90;;;;;;5096219;28;20637;-74
2021/11/04 08:34:15;;;;;;;2.33;1.15;;;8.60;99.90;;;;;;5096433;28;20234;-75
2021/11/04 08:36:43;;;;;;;2.00;1.35;;;8.70;99.90;;;;;;5096317;28;20202;-74
2021/11/04 08:39:13;;;;;;;1.63;1.17;;;8.60;99.90;;;;;;5096041;28;20299;-75
2021/11/04 08:41:40;;;;;;;1.63;1.52;;;8.50;99.90;;;;;;5095123;28;20218;-75
2021/11/04 08:44:07;;;;;;;3.60;2.40;;;8.50;99.90;;;;;;5096018;28;20619;-74
2021/11/04 08:46:33;;;;;;;2.78;1.95;;;8.50;99.90;;;;;;5096123;28;20198;-74
2021/11/04 08:49:01;;;;;;;5.35;3.75;;;8.60;99.90;;;;;;5095986;28;20621;-74
2021/11/04 08:51:28;;;;;;;3.20;2.17;;;8.60;99.90;;;;;;5095904;28;20233;-74
2021/11/04 08:53:54;;;;;;;1.45;1.35;;;8.50;99.90;;;;;;5095733;28;20209;-75
2021/11/04 08:56:23;;;;;;;1.80;1.55;;;8.50;99.90;;;;;;5095875;28;20201;-74
2021/11/04 08:58:49;;;;;;;2.42;1.92;;;8.50;99.90;;;;;;5095813;28;20226;-74
2021/11/04 09:01:16;;;;;;;1.55;1.25;;;8.40;99.90;;;;;;5095449;28;20298;-74
2021/11/04 09:03:43;;;;;;;4.35;1.90;;;8.40;99.90;;;;;;5096024;28;20216;-74
2021/11/04 09:06:10;;;;;;;2.25;1.50;;;8.40;99.90;;;;;;5095876;28;20202;-74
2021/11/04 09:08:37;;;;;;;1.35;1.25;;;8.40;99.90;;;;;;5095698;28;20205;-74
2021/11/04 09:11:04;;;;;;;2.13;1.60;;;8.40;99.90;;;;;;5095401;28;20293;-74
2021/11/04 09:13:33;;;;;;;2.40;1.40;;;8.50;99.90;;;;;;5096059;28;20316;-74
2021/11/04 09:15:59;;;;;;;5.43;3.88;;;8.60;99.90;;;;;;5095333;28;20201;-74
2021/11/04 09:18:26;;;;;;;2.28;1.75;;;8.70;99.90;;;;;;5095394;28;20261;-74
2021/11/04 09:20:53;;;;;;;1.58;1.42;;;8.70;99.90;;;;;;5095339;28;20744;-75
2021/11/04 09:23:20;;;;;;;2.65;1.30;;;8.70;99.90;;;;;;5095073;28;20222;-74
2021/11/04 09:25:47;;;;;;;3.05;1.67;;;8.70;99.90;;;;;;5095784;28;20206;-74
2021/11/04 09:28:14;;;;;;;3.38;1.80;;;8.80;99.90;;;;;;5095298;28;20237;-74
2021/11/04 09:30:42;;;;;;;2.40;1.92;;;8.70;99.90;;;;;;5095220;28;20202;-74
2021/11/04 09:33:10;;;;;;;1.40;1.30;;;8.70;99.90;;;;;;5095026;28;20222;-74
2021/11/04 09:35:37;;;;;;;2.20;1.45;;;8.70;99.90;;;;;;5095063;28;20686;-74
2021/11/04 09:38:04;;;;;;;1.50;1.40;;;8.70;99.90;;;;;;5094942;28;20222;-74
2021/11/04 09:40:31;;;;;;;2.03;1.38;;;8.70;99.90;;;;;;5094888;28;20242;-75
2021/11/04 09:42:58;;;;;;;1.98;1.58;;;8.80;99.90;;;;;;5094847;28;20329;-74
2021/11/04 09:45:26;;;;;;;1.55;1.45;;;8.70;99.90;;;;;;5095001;28;20202;-74
2021/11/04 09:47:54;;;;;;;3.45;1.70;;;8.80;99.90;;;;;;5095188;28;20210;-74
2021/11/04 09:50:22;;;;;;;2.08;1.60;;;8.80;99.90;;;;;;5094829;28;20202;-75
2021/11/04 09:52:54;;;;;;;1.38;1.27;;;8.80;99.90;;;;;;5094529;28;20312;-74
2021/11/04 09:55:22;;;;;;;2.15;1.40;;;8.80;99.90;;;;;;5094760;28;20210;-74
2021/11/04 09:57:50;;;;;;;1.48;1.15;;;8.80;99.90;;;;;;5094666;28;20222;-75
2021/11/04 10:00:19;;;;;;;1.15;1.00;;;8.80;99.90;;;;;;5094740;28;20204;-75
2021/11/04 10:02:46;;;;;;;1.60;1.20;;;8.80;99.90;;;;;;5094288;28;20649;-75
2021/11/04 10:05:16;;;;;;;2.70;1.42;;;8.70;99.90;;;;;;5094575;28;20218;-75
2021/11/04 10:07:45;;;;;;;1.38;1.00;;;8.70;99.90;;;;;;5094373;28;20684;-75
2021/11/04 10:10:13;;;;;;;1.20;1.10;;;8.70;99.90;;;;;;5094543;28;20198;-74
2021/11/04 10:12:56;;;;;;;1.25;1.15;;;8.80;99.90;;;;;;5094258;28;20221;-74
2021/11/04 10:15:23;;;;;;;1.35;1.25;;;8.90;99.90;;;;;;5094463;28;20202;-74
2021/11/04 10:17:50;;;;;;;1.58;1.30;;;8.80;99.90;;;;;;5094361;28;20651;-74
2021/11/04 10:20:22;;;;;;;0.70;0.70;;;8.80;99.90;;;;;;5094359;28;20549;-75
2021/11/04 10:23:00;;;;;;;1.33;0.60;;;8.70;99.90;;;;;;5094220;28;20233;-74
2021/11/04 10:25:27;;;;;;;0.75;0.70;;;8.70;99.90;;;;;;5094335;28;20202;-75
2021/11/04 10:27:55;;;;;;;0.55;0.50;;;8.70;99.90;;;;;;5094125;28;20266;-75
2021/11/04 10:30:37;;;;;;;0.60;0.60;;;8.70;99.90;;;;;;5094194;28;20208;-74
2021/11/04 10:33:19;;;;;;;0.40;0.40;;;8.70;99.90;;;;;;5093963;28;20594;-74
2021/11/04 10:35:52;;;;;;;3.58;1.85;;;8.70;99.90;;;;;;5094075;28;20209;-74
2021/11/04 10:38:19;;;;;;;1.00;0.93;;;8.70;99.90;;;;;;5093759;28;20222;-74
2021/11/04 10:40:45;;;;;;;1.15;1.02;;;8.70;99.90;;;;;;5093639;28;20840;-74
2021/11/04 10:43:12;;;;;;;0.70;0.60;;;8.70;99.90;;;;;;5093518;28;20759;-74
2021/11/04 10:45:39;;;;;;;1.13;0.80;;;8.80;99.90;;;;;;5093989;28;20340;-74
2021/11/04 10:48:20;;;;;;;0.95;0.70;;;8.80;99.90;;;;;;5093897;28;20229;-74
2021/11/04 10:50:48;;;;;;;0.80;0.77;;;8.80;99.90;;;;;;5093981;28;20617;-75
2021/11/04 10:53:22;;;;;;;1.00;1.00;;;8.70;99.90;;;;;;5093379;28;20253;-75
2021/11/04 10:55:51;;;;;;;1.45;1.02;;;8.80;99.90;;;;;;5093857;28;20284;-75
2021/11/04 10:58:29;;;;;;;1.60;1.10;;;8.80;99.90;;;;;;5093803;28;20338;-75
2021/11/04 11:00:56;;;;;;;1.25;1.08;;;8.70;99.90;;;;;;5093757;28;20292;-74
2021/11/04 11:03:23;;;;;;;5.60;3.72;;;8.70;99.90;;;;;;5093275;28;20318;-75
2021/11/04 11:05:55;;;;;;;2.35;1.65;;;8.80;99.90;;;;;;5093149;28;20208;-74
2021/11/04 11:08:24;;;;;;;1.27;1.05;;;8.80;99.90;;;;;;5093780;28;20656;-75
2021/11/04 11:10:52;;;;;;;1.80;1.20;;;8.90;99.90;;;;;;5093550;28;20579;-74
2021/11/04 11:13:19;;;;;;;1.30;1.10;;;8.90;99.90;;;;;;5093195;28;20253;-74
2021/11/04 11:15:51;;;;;;;1.00;1.00;;;9.00;99.90;;;;;;5093882;28;20233;-75
2021/11/04 11:18:21;;;;;;;1.52;1.40;;;9.10;99.90;;;;;;5093293;28;20222;-75
2021/11/04 11:20:49;;;;;;;1.30;1.17;;;9.10;99.90;;;;;;5093563;28;20608;-75
2021/11/04 11:23:17;;;;;;;1.45;1.17;;;9.10;99.90;;;;;;5093376;28;20328;-74
2021/11/04 11:25:47;;;;;;;1.40;1.30;;;9.10;99.90;;;;;;5093524;28;20212;-75
2021/11/04 11:28:14;;;;;;;1.20;1.10;;;9.20;99.90;;;;;;5093538;28;20208;-75
2021/11/04 11:30:41;;;;;;;1.02;0.98;;;9.20;99.90;;;;;;5093511;28;20208;-75
2021/11/04 11:33:18;;;;;;;1.50;1.30;;;9.20;99.90;;;;;;5093298;28;20320;-75
2021/11/04 11:36:10;;;;;;;1.63;1.25;;;9.20;99.90;;;;;;5093470;28;20201;-75
2021/11/04 11:39:06;;;;;;;1.88;1.40;;;9.10;99.90;;;;;;5093374;28;20218;-75
2021/11/04 11:41:55;;;;;;;1.67;1.40;;;9.10;99.90;;;;;;5093284;28;20209;-75
2021/11/04 11:44:37;;;;;;;2.45;1.70;;;9.10;99.90;;;;;;5093198;28;20207;-75
2021/11/04 11:47:05;;;;;;;1.80;1.35;;;9.00;99.90;;;;;;5093368;28;20220;-75
2021/11/04 11:49:34;;;;;;;2.90;1.95;;;9.00;99.90;;;;;;5093345;28;20195;-75
2021/11/04 11:52:01;;;;;;;3.83;2.30;;;8.90;99.90;;;;;;5093075;28;20253;-75
2021/11/04 11:55:05;;;;;;;2.30;1.70;;;8.80;99.90;;;;;;5093026;28;20208;-75
2021/11/04 11:57:32;;;;;;;3.00;2.10;;;8.80;99.90;;;;;;5083360;28;20204;-74
2021/11/04 12:00:00;;;;;;;2.25;2.00;;;8.80;99.90;;;;;;5093357;28;20576;-74
2021/11/04 12:02:42;;;;;;;3.97;2.88;;;8.80;99.90;;;;;;5093035;28;20317;-74
2021/11/04 12:05:37;;;;;;;3.80;2.83;;;8.80;99.90;;;;;;5093019;28;20668;-74
2021/11/04 12:08:36;;;;;;;3.92;3.10;;;8.90;99.90;;;;;;5093067;28;20206;-74
2021/11/04 12:11:05;;;;;;;3.55;2.95;;;8.80;99.90;;;;;;5093078;28;20297;-75
2021/11/04 12:13:41;;;;;;;3.45;2.53;;;8.80;99.90;;;;;;5093059;28;20254;-74
2021/11/04 12:16:15;;;;;;;6.50;3.50;;;8.90;99.90;;;;;;5093033;28;20252;-74
2021/11/04 12:18:50;;;;;;;3.65;3.03;;;8.90;99.90;;;;;;5095884;28;20679;-75
2021/11/04 12:21:26;;;;;;;3.97;3.03;;;8.90;99.90;;;;;;5096165;28;20722;-75
2021/11/04 12:23:54;;;;;;;4.18;3.50;;;8.90;99.90;;;;;;5096353;28;20650;-75
2021/11/04 12:26:43;;;;;;;5.28;3.63;;;8.90;99.90;;;;;;5096455;28;20202;-75
2021/11/04 12:29:13;;;;;;;5.20;3.13;;;8.90;99.90;;;;;;5092050;28;20202;-75
2021/11/04 12:31:45;;;;;;;5.72;3.72;;;9.00;99.90;;;;;;5096353;28;20312;-74
2021/11/04 12:34:20;;;;;;;5.13;3.80;;;9.10;99.90;;;;;;5096526;28;20603;-74
2021/11/04 12:36:48;;;;;;;4.72;2.85;;;9.10;99.90;;;;;;5096382;28;20229;-74
2021/11/04 12:39:21;;;;;;;4.45;3.70;;;9.10;99.90;;;;;;5096043;28;20688;-75
2021/11/04 12:41:49;;;;;;;5.22;3.33;;;9.20;99.90;;;;;;5095987;28;20249;-75
2021/11/04 12:44:21;;;;;;;3.20;2.75;;;9.30;99.90;;;;;;5096194;28;20719;-74
2021/11/04 12:46:50;;;;;;;4.60;3.40;;;9.40;99.90;;;;;;5096032;28;20672;-74
2021/11/04 12:49:24;;;;;;;4.82;3.47;;;9.40;99.90;;;;;;5095867;28;20237;-74
2021/11/04 12:51:53;;;;;;;5.13;3.30;;;9.40;99.90;;;;;;5095708;28;20304;-74
2021/11/04 12:54:22;;;;;;;4.97;3.50;;;9.40;99.90;;;;;;5096031;28;20576;-75
2021/11/04 12:56:53;;;;;;;5.00;3.47;;;9.30;99.90;;;;;;5095928;28;20574;-74
2021/11/04 12:59:39;;;;;;;4.63;3.22;;;9.30;99.90;;;;;;5095812;28;20255;-74
2021/11/04 13:02:10;;;;;;;5.13;3.53;;;9.40;99.90;;;;;;5095505;28;20226;-74
2021/11/04 13:04:39;;;;;;;3.60;2.97;;;9.40;99.90;;;;;;5095935;28;20309;-75